sensor_id;sensor_type;location;lat;lon;timestamp;P1;durP1;ratioP1;P2;durP2;ratioP2
72422;SDS011;60413;55.658;37.498;2022-09-09T00:00:11;6.80;;;1.95;;
72422;SDS011;60413;55.658;37.498;2022-09-09T00:02:45;4.72;;;1.60;;
72422;SDS011;60413;55.658;37.498;2022-09-09T00:05:44;3.50;;;1.40;;
72422;SDS011;60413;55.658;37.498;2022-09-09T00:11:09;2.72;;;1.70;;
72422;SDS011;60413;55.658;37.498;2022-09-09T00:13:42;3.22;;;1.40;;
72422;SDS011;60413;55.658;37.498;2022-09-09T00:16:35;5.25;;;1.80;;
72422;SDS011;60413;55.658;37.498;2022-09-09T00:21:33;2.88;;;1.48;;
72422;SDS011;60413;55.658;37.498;2022-09-09T00:24:08;6.25;;;1.92;;
72422;SDS011;60413;55.658;37.498;2022-09-09T00:33:01;4.10;;;1.77;;
72422;SDS011;60413;55.658;37.498;2022-09-09T00:35:40;5.35;;;1.42;;
72422;SDS011;60413;55.658;37.498;2022-09-09T00:40:50;4.00;;;1.95;;
72422;SDS011;60413;55.658;37.498;2022-09-09T00:43:24;3.20;;;1.50;;
72422;SDS011;60413;55.658;37.498;2022-09-09T00:57:34;7.97;;;1.77;;
72422;SDS011;60413;55.658;37.498;2022-09-09T01:00:21;3.72;;;1.95;;
72422;SDS011;60413;55.658;37.498;2022-09-09T01:11:46;4.00;;;1.90;;
72422;SDS011;60413;55.658;37.498;2022-09-09T01:17:05;6.97;;;2.10;;
72422;SDS011;60413;55.658;37.498;2022-09-09T01:28:00;5.40;;;2.13;;
72422;SDS011;60413;55.658;37.498;2022-09-09T01:30:33;3.78;;;2.08;;
72422;SDS011;60413;55.658;37.498;2022-09-09T01:33:03;6.45;;;2.08;;
72422;SDS011;60413;55.658;37.498;2022-09-09T01:35:49;4.32;;;1.90;;
72422;SDS011;60413;55.658;37.498;2022-09-09T01:38:26;4.00;;;2.20;;
72422;SDS011;60413;55.658;37.498;2022-09-09T01:40:56;6.30;;;2.35;;
72422;SDS011;60413;55.658;37.498;2022-09-09T01:43:30;4.22;;;2.20;;
72422;SDS011;60413;55.658;37.498;2022-09-09T01:45:56;4.32;;;2.63;;
72422;SDS011;60413;55.658;37.498;2022-09-09T01:48:26;5.50;;;2.05;;
72422;SDS011;60413;55.658;37.498;2022-09-09T01:51:10;4.90;;;2.53;;
72422;SDS011;60413;55.658;37.498;2022-09-09T01:53:36;3.50;;;2.13;;
72422;SDS011;60413;55.658;37.498;2022-09-09T01:56:12;7.15;;;2.60;;
72422;SDS011;60413;55.658;37.498;2022-09-09T01:58:47;7.20;;;2.20;;
72422;SDS011;60413;55.658;37.498;2022-09-09T02:01:30;5.82;;;2.80;;
72422;SDS011;60413;55.658;37.498;2022-09-09T02:04:31;5.00;;;2.80;;
72422;SDS011;60413;55.658;37.498;2022-09-09T02:07:11;8.05;;;2.30;;
72422;SDS011;60413;55.658;37.498;2022-09-09T02:09:58;5.95;;;2.30;;
72422;SDS011;60413;55.658;37.498;2022-09-09T02:13:00;4.50;;;2.58;;
72422;SDS011;60413;55.658;37.498;2022-09-09T02:15:31;4.13;;;2.30;;
72422;SDS011;60413;55.658;37.498;2022-09-09T02:18:03;6.22;;;3.05;;
72422;SDS011;60413;55.658;37.498;2022-09-09T02:20:33;7.05;;;2.80;;
72422;SDS011;60413;55.658;37.498;2022-09-09T02:23:02;6.10;;;2.45;;
72422;SDS011;60413;55.658;37.498;2022-09-09T02:25:31;10.05;;;2.85;;
72422;SDS011;60413;55.658;37.498;2022-09-09T02:28:11;3.78;;;2.30;;
72422;SDS011;60413;55.658;37.498;2022-09-09T02:30:39;9.77;;;2.85;;
72422;SDS011;60413;55.658;37.498;2022-09-09T02:33:08;5.78;;;2.60;;
72422;SDS011;60413;55.658;37.498;2022-09-09T02:35:44;8.23;;;2.55;;
72422;SDS011;60413;55.658;37.498;2022-09-09T02:38:14;5.78;;;2.58;;
72422;SDS011;60413;55.658;37.498;2022-09-09T02:40:56;6.10;;;2.45;;
72422;SDS011;60413;55.658;37.498;2022-09-09T02:43:22;6.07;;;2.40;;
72422;SDS011;60413;55.658;37.498;2022-09-09T02:45:52;4.95;;;2.53;;
72422;SDS011;60413;55.658;37.498;2022-09-09T02:48:44;5.35;;;2.47;;
72422;SDS011;60413;55.658;37.498;2022-09-09T02:54:01;8.18;;;2.78;;
72422;SDS011;60413;55.658;37.498;2022-09-09T02:59:13;5.65;;;2.97;;
72422;SDS011;60413;55.658;37.498;2022-09-09T03:01:39;10.63;;;2.83;;
72422;SDS011;60413;55.658;37.498;2022-09-09T03:04:06;9.55;;;3.65;;
72422;SDS011;60413;55.658;37.498;2022-09-09T03:06:32;5.68;;;2.50;;
72422;SDS011;60413;55.658;37.498;2022-09-09T03:09:06;3.83;;;2.35;;
72422;SDS011;60413;55.658;37.498;2022-09-09T03:11:36;6.22;;;2.92;;
72422;SDS011;60413;55.658;37.498;2022-09-09T03:14:04;8.68;;;2.60;;
72422;SDS011;60413;55.658;37.498;2022-09-09T03:16:31;6.30;;;2.80;;
72422;SDS011;60413;55.658;37.498;2022-09-09T03:19:00;4.63;;;2.42;;
72422;SDS011;60413;55.658;37.498;2022-09-09T03:21:27;7.40;;;3.42;;
72422;SDS011;60413;55.658;37.498;2022-09-09T03:23:54;6.13;;;2.83;;
72422;SDS011;60413;55.658;37.498;2022-09-09T03:26:21;4.80;;;2.65;;
72422;SDS011;60413;55.658;37.498;2022-09-09T03:28:47;6.45;;;3.03;;
72422;SDS011;60413;55.658;37.498;2022-09-09T03:31:16;5.07;;;3.00;;
72422;SDS011;60413;55.658;37.498;2022-09-09T03:33:43;6.05;;;3.15;;
72422;SDS011;60413;55.658;37.498;2022-09-09T03:36:12;10.48;;;3.47;;
72422;SDS011;60413;55.658;37.498;2022-09-09T03:38:39;6.00;;;2.95;;
72422;SDS011;60413;55.658;37.498;2022-09-09T03:41:10;7.63;;;2.90;;
72422;SDS011;60413;55.658;37.498;2022-09-09T03:43:38;5.25;;;2.72;;
72422;SDS011;60413;55.658;37.498;2022-09-09T03:46:11;7.22;;;2.65;;
72422;SDS011;60413;55.658;37.498;2022-09-09T03:48:40;5.05;;;2.75;;
72422;SDS011;60413;55.658;37.498;2022-09-09T03:51:06;7.43;;;2.60;;
72422;SDS011;60413;55.658;37.498;2022-09-09T03:53:33;4.70;;;2.10;;
72422;SDS011;60413;55.658;37.498;2022-09-09T03:56:08;4.80;;;2.05;;
72422;SDS011;60413;55.658;37.498;2022-09-09T03:58:38;6.05;;;2.40;;
72422;SDS011;60413;55.658;37.498;2022-09-09T04:01:11;5.30;;;1.60;;
72422;SDS011;60413;55.658;37.498;2022-09-09T04:03:40;3.58;;;1.88;;
72422;SDS011;60413;55.658;37.498;2022-09-09T04:06:08;5.53;;;1.98;;
72422;SDS011;60413;55.658;37.498;2022-09-09T04:08:36;4.03;;;1.88;;
72422;SDS011;60413;55.658;37.498;2022-09-09T04:11:07;3.33;;;1.50;;
72422;SDS011;60413;55.658;37.498;2022-09-09T04:13:36;4.47;;;2.10;;
72422;SDS011;60413;55.658;37.498;2022-09-09T04:16:12;2.78;;;1.70;;
72422;SDS011;60413;55.658;37.498;2022-09-09T04:18:40;5.95;;;1.77;;
72422;SDS011;60413;55.658;37.498;2022-09-09T04:21:06;5.72;;;1.95;;
72422;SDS011;60413;55.658;37.498;2022-09-09T04:23:34;9.80;;;1.85;;
72422;SDS011;60413;55.658;37.498;2022-09-09T04:26:01;4.50;;;2.13;;
72422;SDS011;60413;55.658;37.498;2022-09-09T04:28:32;4.10;;;2.00;;
72422;SDS011;60413;55.658;37.498;2022-09-09T04:31:10;4.65;;;1.88;;
72422;SDS011;60413;55.658;37.498;2022-09-09T04:33:44;5.00;;;1.80;;
72422;SDS011;60413;55.658;37.498;2022-09-09T04:36:12;4.07;;;1.70;;
72422;SDS011;60413;55.658;37.498;2022-09-09T04:38:41;3.45;;;1.77;;
72422;SDS011;60413;55.658;37.498;2022-09-09T04:41:10;4.07;;;1.70;;
72422;SDS011;60413;55.658;37.498;2022-09-09T04:43:38;4.78;;;1.95;;
72422;SDS011;60413;55.658;37.498;2022-09-09T04:46:06;3.47;;;1.77;;
72422;SDS011;60413;55.658;37.498;2022-09-09T04:48:32;5.85;;;1.90;;
72422;SDS011;60413;55.658;37.498;2022-09-09T04:51:01;2.40;;;1.60;;
72422;SDS011;60413;55.658;37.498;2022-09-09T04:53:31;4.10;;;1.45;;
72422;SDS011;60413;55.658;37.498;2022-09-09T04:58:32;5.60;;;3.45;;
72422;SDS011;60413;55.658;37.498;2022-09-09T05:01:09;8.48;;;2.50;;
72422;SDS011;60413;55.658;37.498;2022-09-09T05:06:41;5.18;;;1.60;;
72422;SDS011;60413;55.658;37.498;2022-09-09T05:09:15;2.50;;;1.53;;
72422;SDS011;60413;55.658;37.498;2022-09-09T05:11:45;5.70;;;1.65;;
72422;SDS011;60413;55.658;37.498;2022-09-09T05:14:22;4.90;;;1.60;;
72422;SDS011;60413;55.658;37.498;2022-09-09T05:16:51;4.80;;;1.80;;
72422;SDS011;60413;55.658;37.498;2022-09-09T05:19:17;3.90;;;1.80;;
72422;SDS011;60413;55.658;37.498;2022-09-09T05:21:53;3.22;;;1.65;;
72422;SDS011;60413;55.658;37.498;2022-09-09T05:24:25;2.58;;;1.60;;
72422;SDS011;60413;55.658;37.498;2022-09-09T05:27:05;4.55;;;1.48;;
72422;SDS011;60413;55.658;37.498;2022-09-09T05:29:39;5.97;;;1.77;;
72422;SDS011;60413;55.658;37.498;2022-09-09T05:32:16;4.53;;;1.70;;
72422;SDS011;60413;55.658;37.498;2022-09-09T05:34:50;5.22;;;1.75;;
72422;SDS011;60413;55.658;37.498;2022-09-09T05:40:44;4.63;;;1.77;;
72422;SDS011;60413;55.658;37.498;2022-09-09T05:43:20;4.68;;;1.83;;
72422;SDS011;60413;55.658;37.498;2022-09-09T05:46:04;5.10;;;1.85;;
72422;SDS011;60413;55.658;37.498;2022-09-09T05:48:42;3.65;;;2.00;;
72422;SDS011;60413;55.658;37.498;2022-09-09T05:51:13;4.13;;;2.30;;
72422;SDS011;60413;55.658;37.498;2022-09-09T05:53:45;5.78;;;1.85;;
72422;SDS011;60413;55.658;37.498;2022-09-09T05:56:19;3.88;;;1.73;;
72422;SDS011;60413;55.658;37.498;2022-09-09T05:58:53;2.78;;;1.65;;
72422;SDS011;60413;55.658;37.498;2022-09-09T06:01:22;2.88;;;1.50;;
72422;SDS011;60413;55.658;37.498;2022-09-09T06:03:56;3.42;;;1.67;;
72422;SDS011;60413;55.658;37.498;2022-09-09T06:06:37;2.60;;;1.50;;
72422;SDS011;60413;55.658;37.498;2022-09-09T06:11:44;5.43;;;1.50;;
72422;SDS011;60413;55.658;37.498;2022-09-09T06:14:13;5.03;;;1.63;;
72422;SDS011;60413;55.658;37.498;2022-09-09T06:16:42;3.22;;;1.20;;
72422;SDS011;60413;55.658;37.498;2022-09-09T06:19:18;5.03;;;1.80;;
72422;SDS011;60413;55.658;37.498;2022-09-09T06:21:46;5.40;;;2.05;;
72422;SDS011;60413;55.658;37.498;2022-09-09T06:24:16;2.83;;;1.50;;
72422;SDS011;60413;55.658;37.498;2022-09-09T06:26:46;3.85;;;1.40;;
72422;SDS011;60413;55.658;37.498;2022-09-09T06:29:19;3.13;;;1.45;;
72422;SDS011;60413;55.658;37.498;2022-09-09T06:31:45;5.80;;;1.80;;
72422;SDS011;60413;55.658;37.498;2022-09-09T06:34:15;5.68;;;1.52;;
72422;SDS011;60413;55.658;37.498;2022-09-09T06:36:46;5.18;;;1.10;;
72422;SDS011;60413;55.658;37.498;2022-09-09T06:39:12;2.30;;;1.23;;
72422;SDS011;60413;55.658;37.498;2022-09-09T06:41:41;6.03;;;1.35;;
72422;SDS011;60413;55.658;37.498;2022-09-09T06:45:07;3.78;;;1.30;;
72422;SDS011;60413;55.658;37.498;2022-09-09T06:47:44;4.53;;;1.40;;
72422;SDS011;60413;55.658;37.498;2022-09-09T06:50:11;4.57;;;1.25;;
72422;SDS011;60413;55.658;37.498;2022-09-09T06:52:38;3.60;;;1.77;;
72422;SDS011;60413;55.658;37.498;2022-09-09T06:55:04;1.67;;;0.70;;
72422;SDS011;60413;55.658;37.498;2022-09-09T06:57:32;1.35;;;0.65;;
72422;SDS011;60413;55.658;37.498;2022-09-09T07:09:00;1.60;;;0.80;;
72422;SDS011;60413;55.658;37.498;2022-09-09T07:11:40;4.72;;;1.20;;
72422;SDS011;60413;55.658;37.498;2022-09-09T07:17:11;3.08;;;1.10;;
72422;SDS011;60413;55.658;37.498;2022-09-09T07:19:40;4.07;;;1.27;;
72422;SDS011;60413;55.658;37.498;2022-09-09T07:24:44;2.83;;;1.10;;
72422;SDS011;60413;55.658;37.498;2022-09-09T07:27:12;2.67;;;1.20;;
72422;SDS011;60413;55.658;37.498;2022-09-09T07:29:44;1.67;;;0.90;;
72422;SDS011;60413;55.658;37.498;2022-09-09T07:32:12;3.67;;;1.10;;
72422;SDS011;60413;55.658;37.498;2022-09-09T07:34:59;5.68;;;1.20;;
72422;SDS011;60413;55.658;37.498;2022-09-09T07:37:30;3.35;;;1.40;;
72422;SDS011;60413;55.658;37.498;2022-09-09T07:39:58;2.22;;;1.20;;
72422;SDS011;60413;55.658;37.498;2022-09-09T07:42:27;2.05;;;1.00;;
72422;SDS011;60413;55.658;37.498;2022-09-09T07:44:56;3.83;;;1.42;;
72422;SDS011;60413;55.658;37.498;2022-09-09T07:47:26;1.52;;;0.85;;
72422;SDS011;60413;55.658;37.498;2022-09-09T07:50:14;2.35;;;0.70;;
72422;SDS011;60413;55.658;37.498;2022-09-09T07:52:44;1.98;;;0.90;;
72422;SDS011;60413;55.658;37.498;2022-09-09T07:55:10;4.38;;;1.10;;
72422;SDS011;60413;55.658;37.498;2022-09-09T07:57:37;2.78;;;1.05;;
72422;SDS011;60413;55.658;37.498;2022-09-09T08:00:03;2.42;;;0.95;;
72422;SDS011;60413;55.658;37.498;2022-09-09T08:02:37;7.03;;;1.13;;
72422;SDS011;60413;55.658;37.498;2022-09-09T08:05:21;5.95;;;1.20;;
72422;SDS011;60413;55.658;37.498;2022-09-09T08:10:45;3.80;;;0.93;;
72422;SDS011;60413;55.658;37.498;2022-09-09T08:13:22;2.53;;;0.80;;
72422;SDS011;60413;55.658;37.498;2022-09-09T08:16:02;1.40;;;0.80;;
72422;SDS011;60413;55.658;37.498;2022-09-09T08:21:46;1.63;;;0.60;;
72422;SDS011;60413;55.658;37.498;2022-09-09T08:24:16;6.80;;;1.17;;
72422;SDS011;60413;55.658;37.498;2022-09-09T08:26:48;1.88;;;1.08;;
72422;SDS011;60413;55.658;37.498;2022-09-09T08:29:18;3.55;;;1.17;;
72422;SDS011;60413;55.658;37.498;2022-09-09T08:35:14;1.55;;;0.73;;
72422;SDS011;60413;55.658;37.498;2022-09-09T08:37:52;1.55;;;0.60;;
72422;SDS011;60413;55.658;37.498;2022-09-09T08:40:32;2.15;;;1.00;;
72422;SDS011;60413;55.658;37.498;2022-09-09T08:43:06;5.07;;;0.95;;
72422;SDS011;60413;55.658;37.498;2022-09-09T08:45:48;1.98;;;0.90;;
72422;SDS011;60413;55.658;37.498;2022-09-09T08:48:40;3.08;;;0.90;;
72422;SDS011;60413;55.658;37.498;2022-09-09T08:51:19;5.47;;;1.52;;
72422;SDS011;60413;55.658;37.498;2022-09-09T08:55:22;3.45;;;0.80;;
72422;SDS011;60413;55.658;37.498;2022-09-09T08:58:15;1.42;;;0.93;;
72422;SDS011;60413;55.658;37.498;2022-09-09T09:03:42;2.17;;;0.90;;
72422;SDS011;60413;55.658;37.498;2022-09-09T09:09:21;3.20;;;0.80;;
72422;SDS011;60413;55.658;37.498;2022-09-09T09:11:50;2.17;;;1.13;;
72422;SDS011;60413;55.658;37.498;2022-09-09T09:14:24;1.75;;;0.90;;
72422;SDS011;60413;55.658;37.498;2022-09-09T09:19:33;4.82;;;1.23;;
72422;SDS011;60413;55.658;37.498;2022-09-09T09:24:55;2.40;;;1.02;;
72422;SDS011;60413;55.658;37.498;2022-09-09T09:37:31;1.52;;;0.70;;
72422;SDS011;60413;55.658;37.498;2022-09-09T09:40:12;1.30;;;0.70;;
72422;SDS011;60413;55.658;37.498;2022-09-09T09:42:53;3.08;;;0.80;;
72422;SDS011;60413;55.658;37.498;2022-09-09T09:45:35;4.07;;;1.02;;
72422;SDS011;60413;55.658;37.498;2022-09-09T09:48:12;6.75;;;1.00;;
72422;SDS011;60413;55.658;37.498;2022-09-09T09:50:57;5.88;;;0.80;;
72422;SDS011;60413;55.658;37.498;2022-09-09T09:53:38;1.75;;;0.82;;
72422;SDS011;60413;55.658;37.498;2022-09-09T10:02:19;2.83;;;0.90;;
72422;SDS011;60413;55.658;37.498;2022-09-09T10:07:43;2.70;;;0.95;;
72422;SDS011;60413;55.658;37.498;2022-09-09T10:13:20;5.43;;;1.05;;
72422;SDS011;60413;55.658;37.498;2022-09-09T10:22:32;3.65;;;0.82;;
72422;SDS011;60413;55.658;37.498;2022-09-09T10:37:06;1.80;;;0.70;;
72422;SDS011;60413;55.658;37.498;2022-09-09T10:39:51;1.98;;;0.82;;
72422;SDS011;60413;55.658;37.498;2022-09-09T10:42:30;1.92;;;0.82;;
72422;SDS011;60413;55.658;37.498;2022-09-09T10:45:32;2.58;;;1.00;;
72422;SDS011;60413;55.658;37.498;2022-09-09T10:51:14;3.38;;;0.90;;
72422;SDS011;60413;55.658;37.498;2022-09-09T10:54:10;4.20;;;0.98;;
72422;SDS011;60413;55.658;37.498;2022-09-09T10:57:10;2.83;;;1.00;;
72422;SDS011;60413;55.658;37.498;2022-09-09T10:59:50;1.48;;;0.70;;
72422;SDS011;60413;55.658;37.498;2022-09-09T11:02:31;11.75;;;5.18;;
72422;SDS011;60413;55.658;37.498;2022-09-09T11:11:04;2.25;;;0.73;;
72422;SDS011;60413;55.658;37.498;2022-09-09T11:13:19;1.90;;;0.70;;
72422;SDS011;60413;55.658;37.498;2022-09-09T11:19:55;1.70;;;0.80;;
72422;SDS011;60413;55.658;37.498;2022-09-09T11:22:30;5.05;;;1.00;;
72422;SDS011;60413;55.658;37.498;2022-09-09T11:25:34;1.92;;;0.90;;
72422;SDS011;60413;55.658;37.498;2022-09-09T11:39:44;1.90;;;0.93;;
72422;SDS011;60413;55.658;37.498;2022-09-09T11:42:24;2.67;;;0.88;;
72422;SDS011;60413;55.658;37.498;2022-09-09T11:44:51;3.05;;;0.88;;
72422;SDS011;60413;55.658;37.498;2022-09-09T11:50:09;2.15;;;0.80;;
72422;SDS011;60413;55.658;37.498;2022-09-09T11:52:46;3.00;;;0.90;;
72422;SDS011;60413;55.658;37.498;2022-09-09T11:55:26;2.42;;;0.88;;
72422;SDS011;60413;55.658;37.498;2022-09-09T11:58:04;2.30;;;0.80;;
72422;SDS011;60413;55.658;37.498;2022-09-09T12:00:44;1.25;;;0.70;;
72422;SDS011;60413;55.658;37.498;2022-09-09T12:09:00;4.13;;;1.00;;
72422;SDS011;60413;55.658;37.498;2022-09-09T12:19:46;2.47;;;1.30;;
72422;SDS011;60413;55.658;37.498;2022-09-09T12:28:20;2.38;;;0.65;;
72422;SDS011;60413;55.658;37.498;2022-09-09T12:33:43;2.92;;;0.80;;
72422;SDS011;60413;55.658;37.498;2022-09-09T12:36:11;1.17;;;0.52;;
72422;SDS011;60413;55.658;37.498;2022-09-09T12:38:41;2.45;;;0.85;;
72422;SDS011;60413;55.658;37.498;2022-09-09T12:41:34;4.97;;;1.63;;
72422;SDS011;60413;55.658;37.498;2022-09-09T12:44:14;1.95;;;0.80;;
72422;SDS011;60413;55.658;37.498;2022-09-09T12:46:43;3.38;;;0.70;;
72422;SDS011;60413;55.658;37.498;2022-09-09T12:49:26;5.13;;;1.17;;
72422;SDS011;60413;55.658;37.498;2022-09-09T12:52:06;2.55;;;1.00;;
72422;SDS011;60413;55.658;37.498;2022-09-09T12:54:48;3.78;;;0.85;;
72422;SDS011;60413;55.658;37.498;2022-09-09T12:57:17;1.48;;;0.80;;
72422;SDS011;60413;55.658;37.498;2022-09-09T12:59:49;2.47;;;1.10;;
72422;SDS011;60413;55.658;37.498;2022-09-09T13:02:20;2.80;;;0.90;;
72422;SDS011;60413;55.658;37.498;2022-09-09T13:04:48;5.10;;;0.82;;
72422;SDS011;60413;55.658;37.498;2022-09-09T13:07:16;2.28;;;0.77;;
72422;SDS011;60413;55.658;37.498;2022-09-09T13:12:49;2.60;;;1.00;;
72422;SDS011;60413;55.658;37.498;2022-09-09T13:15:20;2.65;;;1.10;;
72422;SDS011;60413;55.658;37.498;2022-09-09T13:17:51;3.92;;;1.45;;
72422;SDS011;60413;55.658;37.498;2022-09-09T13:20:52;4.22;;;0.80;;
72422;SDS011;60413;55.658;37.498;2022-09-09T13:23:27;2.50;;;0.90;;
72422;SDS011;60413;55.658;37.498;2022-09-09T13:28:51;2.38;;;0.80;;
72422;SDS011;60413;55.658;37.498;2022-09-09T13:31:39;3.78;;;0.73;;
72422;SDS011;60413;55.658;37.498;2022-09-09T13:34:28;2.47;;;0.70;;
72422;SDS011;60413;55.658;37.498;2022-09-09T13:36:59;2.38;;;1.00;;
72422;SDS011;60413;55.658;37.498;2022-09-09T13:39:35;1.95;;;0.82;;
72422;SDS011;60413;55.658;37.498;2022-09-09T13:42:19;1.45;;;0.80;;
72422;SDS011;60413;55.658;37.498;2022-09-09T13:44:51;2.95;;;0.70;;
72422;SDS011;60413;55.658;37.498;2022-09-09T13:47:36;2.27;;;0.80;;
72422;SDS011;60413;55.658;37.498;2022-09-09T13:50:26;1.90;;;0.70;;
72422;SDS011;60413;55.658;37.498;2022-09-09T13:53:11;2.92;;;0.60;;
72422;SDS011;60413;55.658;37.498;2022-09-09T13:55:54;1.45;;;0.70;;
72422;SDS011;60413;55.658;37.498;2022-09-09T13:58:26;3.10;;;0.85;;
72422;SDS011;60413;55.658;37.498;2022-09-09T14:01:02;8.15;;;2.25;;
72422;SDS011;60413;55.658;37.498;2022-09-09T14:07:14;3.03;;;0.80;;
72422;SDS011;60413;55.658;37.498;2022-09-09T14:12:29;2.33;;;0.90;;
72422;SDS011;60413;55.658;37.498;2022-09-09T14:15:22;5.80;;;0.90;;
72422;SDS011;60413;55.658;37.498;2022-09-09T14:17:54;3.05;;;1.08;;
72422;SDS011;60413;55.658;37.498;2022-09-09T14:25:04;4.15;;;0.85;;
72422;SDS011;60413;55.658;37.498;2022-09-09T14:27:40;2.83;;;1.10;;
72422;SDS011;60413;55.658;37.498;2022-09-09T14:30:17;4.25;;;1.10;;
72422;SDS011;60413;55.658;37.498;2022-09-09T14:32:58;11.70;;;1.30;;
72422;SDS011;60413;55.658;37.498;2022-09-09T14:35:34;3.85;;;1.08;;
72422;SDS011;60413;55.658;37.498;2022-09-09T14:38:00;8.65;;;1.30;;
72422;SDS011;60413;55.658;37.498;2022-09-09T14:43:50;3.97;;;1.10;;
72422;SDS011;60413;55.658;37.498;2022-09-09T14:46:48;4.35;;;1.10;;
72422;SDS011;60413;55.658;37.498;2022-09-09T14:49:18;3.67;;;1.10;;
72422;SDS011;60413;55.658;37.498;2022-09-09T14:52:32;3.70;;;1.05;;
72422;SDS011;60413;55.658;37.498;2022-09-09T14:55:10;3.10;;;1.20;;
72422;SDS011;60413;55.658;37.498;2022-09-09T14:58:09;4.68;;;1.65;;
72422;SDS011;60413;55.658;37.498;2022-09-09T15:00:49;3.30;;;1.42;;
72422;SDS011;60413;55.658;37.498;2022-09-09T15:04:09;3.03;;;1.70;;
72422;SDS011;60413;55.658;37.498;2022-09-09T15:09:27;4.40;;;1.50;;
72422;SDS011;60413;55.658;37.498;2022-09-09T15:12:04;4.65;;;1.48;;
72422;SDS011;60413;55.658;37.498;2022-09-09T15:15:27;5.88;;;1.98;;
72422;SDS011;60413;55.658;37.498;2022-09-09T15:18:08;4.40;;;1.70;;
72422;SDS011;60413;55.658;37.498;2022-09-09T15:20:50;3.55;;;1.38;;
72422;SDS011;60413;55.658;37.498;2022-09-09T15:23:34;4.03;;;1.50;;
72422;SDS011;60413;55.658;37.498;2022-09-09T15:26:19;3.17;;;1.35;;
72422;SDS011;60413;55.658;37.498;2022-09-09T15:28:48;2.05;;;1.00;;
72422;SDS011;60413;55.658;37.498;2022-09-09T15:31:24;4.38;;;1.48;;
72422;SDS011;60413;55.658;37.498;2022-09-09T15:34:14;2.00;;;1.20;;
72422;SDS011;60413;55.658;37.498;2022-09-09T15:36:41;7.55;;;1.30;;
72422;SDS011;60413;55.658;37.498;2022-09-09T15:39:24;3.15;;;1.30;;
72422;SDS011;60413;55.658;37.498;2022-09-09T15:42:21;3.20;;;1.45;;
72422;SDS011;60413;55.658;37.498;2022-09-09T15:44:53;4.60;;;1.25;;
72422;SDS011;60413;55.658;37.498;2022-09-09T15:47:46;4.22;;;1.27;;
72422;SDS011;60413;55.658;37.498;2022-09-09T15:50:21;2.60;;;1.20;;
72422;SDS011;60413;55.658;37.498;2022-09-09T15:52:56;2.38;;;1.17;;
72422;SDS011;60413;55.658;37.498;2022-09-09T15:55:37;4.93;;;1.30;;
72422;SDS011;60413;55.658;37.498;2022-09-09T15:58:19;5.20;;;1.42;;
72422;SDS011;60413;55.658;37.498;2022-09-09T16:01:09;4.05;;;1.73;;
72422;SDS011;60413;55.658;37.498;2022-09-09T16:03:40;7.38;;;1.73;;
72422;SDS011;60413;55.658;37.498;2022-09-09T16:09:17;3.22;;;1.20;;
72422;SDS011;60413;55.658;37.498;2022-09-09T16:34:00;3.20;;;1.53;;
72422;SDS011;60413;55.658;37.498;2022-09-09T16:36:36;2.78;;;1.10;;
72422;SDS011;60413;55.658;37.498;2022-09-09T16:40:23;4.83;;;1.33;;
72422;SDS011;60413;55.658;37.498;2022-09-09T16:42:52;7.35;;;1.63;;
72422;SDS011;60413;55.658;37.498;2022-09-09T16:45:49;4.53;;;1.20;;
72422;SDS011;60413;55.658;37.498;2022-09-09T16:48:53;4.68;;;1.40;;
72422;SDS011;60413;55.658;37.498;2022-09-09T16:51:53;4.60;;;1.30;;
72422;SDS011;60413;55.658;37.498;2022-09-09T16:54:33;4.15;;;1.40;;
72422;SDS011;60413;55.658;37.498;2022-09-09T16:57:10;5.68;;;1.40;;
72422;SDS011;60413;55.658;37.498;2022-09-09T16:59:48;9.93;;;1.40;;
72422;SDS011;60413;55.658;37.498;2022-09-09T17:02:43;6.35;;;1.55;;
72422;SDS011;60413;55.658;37.498;2022-09-09T17:05:17;4.68;;;1.48;;
72422;SDS011;60413;55.658;37.498;2022-09-09T17:07:49;2.60;;;1.40;;
72422;SDS011;60413;55.658;37.498;2022-09-09T17:10:27;8.02;;;1.50;;
72422;SDS011;60413;55.658;37.498;2022-09-09T17:12:59;3.10;;;1.35;;
72422;SDS011;60413;55.658;37.498;2022-09-09T17:15:25;4.20;;;1.38;;
72422;SDS011;60413;55.658;37.498;2022-09-09T17:17:54;8.50;;;1.58;;
72422;SDS011;60413;55.658;37.498;2022-09-09T17:20:20;4.32;;;1.98;;
72422;SDS011;60413;55.658;37.498;2022-09-09T17:22:49;6.45;;;2.00;;
72422;SDS011;60413;55.658;37.498;2022-09-09T17:25:15;4.43;;;1.75;;
72422;SDS011;60413;55.658;37.498;2022-09-09T17:27:44;3.53;;;1.45;;
72422;SDS011;60413;55.658;37.498;2022-09-09T17:30:13;4.18;;;1.60;;
72422;SDS011;60413;55.658;37.498;2022-09-09T17:32:44;4.22;;;1.88;;
72422;SDS011;60413;55.658;37.498;2022-09-09T17:35:09;9.25;;;1.50;;
72422;SDS011;60413;55.658;37.498;2022-09-09T17:37:36;6.35;;;1.55;;
72422;SDS011;60413;55.658;37.498;2022-09-09T17:40:16;7.93;;;1.98;;
72422;SDS011;60413;55.658;37.498;2022-09-09T17:42:44;6.50;;;1.48;;
72422;SDS011;60413;55.658;37.498;2022-09-09T17:45:14;5.03;;;1.65;;
72422;SDS011;60413;55.658;37.498;2022-09-09T17:47:43;5.93;;;1.58;;
72422;SDS011;60413;55.658;37.498;2022-09-09T17:50:10;3.83;;;1.65;;
72422;SDS011;60413;55.658;37.498;2022-09-09T17:52:39;4.85;;;1.63;;
72422;SDS011;60413;55.658;37.498;2022-09-09T17:55:08;2.83;;;1.40;;
72422;SDS011;60413;55.658;37.498;2022-09-09T17:57:45;4.65;;;1.73;;
72422;SDS011;60413;55.658;37.498;2022-09-09T18:00:15;10.45;;;2.58;;
72422;SDS011;60413;55.658;37.498;2022-09-09T18:03:01;7.82;;;2.30;;
72422;SDS011;60413;55.658;37.498;2022-09-09T18:05:30;6.35;;;1.98;;
72422;SDS011;60413;55.658;37.498;2022-09-09T18:07:56;10.07;;;2.53;;
72422;SDS011;60413;55.658;37.498;2022-09-09T18:10:26;3.83;;;1.80;;
72422;SDS011;60413;55.658;37.498;2022-09-09T18:12:58;7.10;;;2.30;;
72422;SDS011;60413;55.658;37.498;2022-09-09T18:15:40;3.80;;;2.08;;
72422;SDS011;60413;55.658;37.498;2022-09-09T18:18:06;7.22;;;2.58;;
72422;SDS011;60413;55.658;37.498;2022-09-09T18:20:39;4.35;;;2.05;;
72422;SDS011;60413;55.658;37.498;2022-09-09T18:23:10;4.75;;;1.90;;
72422;SDS011;60413;55.658;37.498;2022-09-09T18:25:49;12.82;;;2.10;;
72422;SDS011;60413;55.658;37.498;2022-09-09T18:28:35;6.60;;;2.65;;
72422;SDS011;60413;55.658;37.498;2022-09-09T18:31:35;10.82;;;2.25;;
72422;SDS011;60413;55.658;37.498;2022-09-09T18:34:06;10.82;;;2.33;;
72422;SDS011;60413;55.658;37.498;2022-09-09T18:36:48;5.18;;;2.35;;
72422;SDS011;60413;55.658;37.498;2022-09-09T18:39:30;11.25;;;2.33;;
72422;SDS011;60413;55.658;37.498;2022-09-09T18:42:10;5.60;;;1.90;;
72422;SDS011;60413;55.658;37.498;2022-09-09T18:45:04;5.75;;;2.35;;
72422;SDS011;60413;55.658;37.498;2022-09-09T18:47:36;5.95;;;2.40;;
72422;SDS011;60413;55.658;37.498;2022-09-09T18:53:55;11.63;;;2.97;;
72422;SDS011;60413;55.658;37.498;2022-09-09T18:56:36;10.82;;;2.95;;
72422;SDS011;60413;55.658;37.498;2022-09-09T18:59:13;8.02;;;2.63;;
72422;SDS011;60413;55.658;37.498;2022-09-09T19:01:51;9.27;;;3.08;;
72422;SDS011;60413;55.658;37.498;2022-09-09T19:04:35;10.97;;;2.77;;
72422;SDS011;60413;55.658;37.498;2022-09-09T19:07:12;10.00;;;3.17;;
72422;SDS011;60413;55.658;37.498;2022-09-09T19:09:42;7.55;;;2.42;;
72422;SDS011;60413;55.658;37.498;2022-09-09T19:12:31;8.10;;;3.10;;
72422;SDS011;60413;55.658;37.498;2022-09-09T19:14:57;13.85;;;5.80;;
72422;SDS011;60413;55.658;37.498;2022-09-09T19:17:32;9.50;;;3.47;;
72422;SDS011;60413;55.658;37.498;2022-09-09T19:20:01;10.95;;;4.15;;
72422;SDS011;60413;55.658;37.498;2022-09-09T19:22:37;7.47;;;3.03;;
72422;SDS011;60413;55.658;37.498;2022-09-09T19:25:11;9.38;;;3.35;;